Time;durP1;ratioP1;P1;durP2;ratioP2;P2;SDS_P1;SDS_P2;PMS_P1;PMS_P2;Temp;Humidity;BMP_temperature;BMP_pressure;BME280_temperature;BME280_humidity;BME280_pressure;Samples;Min_cycle;Max_cycle;Signal;HPM_P1;HPM_P2
2023/09/16 00:00:19;;;;;;;7.38;4.30;;;;;;;11.58;100.00;98582.31;2628697;28;20055;-88
2023/09/16 00:01:55;;;;;;;5.75;3.67;;;;;;;11.57;100.00;98578.84;2629374;28;20439;-87
2023/09/16 00:03:10;;;;;;;6.07;4.10;;;;;;;11.55;100.00;98579.78;2629088;28;20052;-90
2023/09/16 00:04:26;;;;;;;7.15;4.45;;;;;;;11.67;100.00;98578.59;2629177;28;20404;-88
2023/09/16 00:05:42;;;;;;;5.65;3.85;;;;;;;11.85;100.00;98574.50;2629047;28;20514;-88
2023/09/16 00:06:59;;;;;;;7.03;4.38;;;;;;;11.94;100.00;98573.34;2628803;28;20074;-88
2023/09/16 00:08:14;;;;;;;5.30;4.05;;;;;;;11.77;100.00;98576.53;2629055;28;20043;-88
2023/09/16 00:09:30;;;;;;;5.60;4.20;;;;;;;11.87;100.00;98583.19;2628817;28;20048;-88
2023/09/16 00:10:47;;;;;;;5.45;3.85;;;;;;;11.81;100.00;98579.03;2628893;28;20500;-87
2023/09/16 00:12:03;;;;;;;5.10;4.20;;;;;;;11.84;100.00;98573.66;2628839;28;20056;-88
2023/09/16 00:13:19;;;;;;;6.55;4.45;;;;;;;11.79;100.00;98572.94;2628702;28;20060;-87
2023/09/16 00:14:34;;;;;;;7.78;4.40;;;;;;;11.70;100.00;98581.09;2628289;28;20093;-87
2023/09/16 00:15:50;;;;;;;5.93;4.10;;;;;;;11.60;100.00;98583.16;2628951;28;20071;-87
2023/09/16 00:17:05;;;;;;;6.18;3.90;;;;;;;11.61;100.00;98577.00;2628494;28;20396;-87
2023/09/16 00:18:21;;;;;;;4.75;3.70;;;;;;;11.63;100.00;98582.19;2629029;28;20055;-87
2023/09/16 00:19:37;;;;;;;5.63;3.80;;;;;;;11.66;100.00;98572.47;2628501;28;20066;-87
2023/09/16 00:20:52;;;;;;;5.13;3.85;;;;;;;11.57;100.00;98575.34;2629537;28;20166;-87
2023/09/16 00:22:11;;;;;;;4.82;3.88;;;;;;;11.50;100.00;98573.84;2628525;28;20055;-88
2023/09/16 00:23:26;;;;;;;8.18;4.00;;;;;;;11.51;100.00;98575.53;2629215;28;20426;-88
2023/09/16 00:24:42;;;;;;;5.85;3.67;;;;;;;11.43;100.00;98581.03;2628591;28;20059;-87
2023/09/16 00:25:58;;;;;;;4.55;3.45;;;;;;;11.58;100.00;98577.06;2628889;28;20181;-88
2023/09/16 00:27:14;;;;;;;6.28;3.75;;;;;;;11.65;100.00;98573.38;2628446;28;20553;-87
2023/09/16 00:28:30;;;;;;;5.65;3.90;;;;;;;11.43;100.00;98573.16;2628915;28;20057;-88
2023/09/16 00:29:46;;;;;;;5.80;3.60;;;;;;;11.41;100.00;98573.19;2617494;28;20139;-89
2023/09/16 00:31:02;;;;;;;5.20;3.67;;;;;;;11.49;100.00;98574.75;2622032;28;20131;-88
2023/09/16 00:32:17;;;;;;;6.75;4.10;;;;;;;11.47;100.00;98573.94;2617198;28;20082;-87
2023/09/16 00:33:33;;;;;;;6.00;3.65;;;;;;;11.43;100.00;98568.75;2622052;28;20499;-88
2023/09/16 00:34:51;;;;;;;4.75;3.50;;;;;;;11.38;100.00;98568.03;2629176;28;20372;-88
2023/09/16 00:36:07;;;;;;;6.10;4.18;;;;;;;11.26;100.00;98571.00;2628846;28;20070;-88
2023/09/16 00:37:23;;;;;;;8.20;3.95;;;;;;;11.22;100.00;98575.47;2628746;28;20075;-88
2023/09/16 00:38:38;;;;;;;6.28;3.72;;;;;;;11.28;100.00;98570.06;2629353;28;20047;-88
2023/09/16 00:39:54;;;;;;;6.55;4.30;;;;;;;11.32;100.00;98570.84;2628698;28;20075;-87
2023/09/16 00:41:12;;;;;;;5.55;4.03;;;;;;;11.39;100.00;98564.50;2617842;28;20045;-88
2023/09/16 00:42:27;;;;;;;9.00;4.15;;;;;;;11.40;100.00;98568.00;2621963;28;20052;-88
2023/09/16 00:43:43;;;;;;;6.25;4.20;;;;;;;11.43;100.00;98560.03;2617255;28;20044;-88
2023/09/16 00:44:59;;;;;;;5.78;3.95;;;;;;;11.53;100.00;98563.25;2622346;28;20059;-88
2023/09/16 00:46:14;;;;;;;7.80;5.00;;;;;;;11.58;100.00;98556.09;2628370;28;20048;-87
2023/09/16 00:47:29;;;;;;;7.63;5.05;;;;;;;11.58;100.00;98558.72;2629396;28;20785;-88
2023/09/16 00:48:45;;;;;;;6.47;4.45;;;;;;;11.50;100.00;98555.47;2628823;28;20516;-89
2023/09/16 00:50:06;;;;;;;7.10;4.40;;;;;;;11.55;100.00;98556.19;2631195;28;20136;-87
2023/09/16 00:51:22;;;;;;;6.22;4.03;;;;;;;11.51;100.00;98560.66;2629827;28;20444;-88
2023/09/16 00:52:45;;;;;;;5.95;4.30;;;;;;;11.39;100.00;98561.88;2619623;28;20102;-88
2023/09/16 00:54:01;;;;;;;5.65;4.07;;;;;;;11.41;100.00;98559.25;2624778;28;20046;-89
2023/09/16 00:55:17;;;;;;;7.18;4.75;;;;;;;11.49;100.00;98557.22;2630383;28;20075;-87
2023/09/16 00:56:34;;;;;;;7.55;4.30;;;;;;;11.57;100.00;98559.63;2630530;28;20101;-88
2023/09/16 00:57:53;;;;;;;7.05;4.53;;;;;;;11.54;100.00;98560.59;2630516;28;20052;-89
2023/09/16 00:59:08;;;;;;;6.68;4.30;;;;;;;11.55;100.00;98554.44;2630580;28;20048;-88
2023/09/16 01:00:28;;;;;;;7.90;4.53;;;;;;;11.63;100.00;98553.34;2632046;28;20060;-87
2023/09/16 01:01:49;;;;;;;6.75;4.47;;;;;;;11.48;100.00;98552.06;2630965;28;20102;-88
2023/09/16 01:03:06;;;;;;;6.78;4.22;;;;;;;11.52;100.00;98549.25;2630819;28;20048;-87
2023/09/16 01:04:22;;;;;;;6.18;3.83;;;;;;;11.42;100.00;98547.84;2630529;28;20048;-88
2023/09/16 01:05:38;;;;;;;6.00;4.10;;;;;;;11.34;100.00;98548.06;2631222;28;20136;-88
2023/09/16 01:06:55;;;;;;;5.78;4.15;;;;;;;11.46;100.00;98548.63;2630378;28;20063;-88
2023/09/16 01:08:12;;;;;;;5.75;3.95;;;;;;;11.56;100.00;98545.66;2631334;28;20555;-88
2023/09/16 01:09:27;;;;;;;5.82;4.22;;;;;;;11.43;100.00;98545.16;2630116;28;20047;-88
2023/09/16 01:10:43;;;;;;;5.63;4.10;;;;;;;11.40;100.00;98549.66;2630977;28;20040;-88
2023/09/16 01:11:59;;;;;;;7.45;4.30;;;;;;;11.46;100.00;98548.63;2630545;28;20049;-88
2023/09/16 01:13:15;;;;;;;5.95;4.20;;;;;;;11.41;100.00;98551.38;2630623;28;20507;-88
2023/09/16 01:14:30;;;;;;;5.93;4.10;;;;;;;11.43;100.00;98554.81;2630341;28;20056;-88
2023/09/16 01:15:55;;;;;;;6.43;4.03;;;;;;;11.39;100.00;98553.19;2630179;28;20059;-87
2023/09/16 01:17:21;;;;;;;6.95;4.25;;;;;;;11.37;100.00;98555.84;2630432;28;20478;-88
2023/09/16 01:18:40;;;;;;;5.53;4.30;;;;;;;11.44;100.00;98559.13;2619694;28;20096;-88
2023/09/16 01:20:06;;;;;;;5.75;4.03;;;;;;;11.47;100.00;98558.19;2623922;28;20048;-88
2023/09/16 01:21:22;;;;;;;6.68;3.92;;;;;;;11.50;100.00;98558.09;2630963;28;20044;-88
2023/09/16 01:22:40;;;;;;;6.85;4.10;;;;;;;11.33;100.00;98548.09;2629898;28;20388;-88
2023/09/16 01:24:18;;;;;;;5.32;4.07;;;;;;;11.46;100.00;98549.47;2630318;28;20040;-88
2023/09/16 01:25:34;;;;;;;6.20;4.05;;;;;;;11.49;100.00;98543.28;2629449;28;20052;-88
2023/09/16 01:26:50;;;;;;;6.00;4.10;;;;;;;11.53;100.00;98543.16;2630986;28;20051;-88
2023/09/16 01:28:05;;;;;;;4.72;3.78;;;;;;;11.57;100.00;98538.63;2630223;28;20135;-88
2023/09/16 01:29:21;;;;;;;5.40;4.13;;;;;;;11.64;100.00;98547.19;2630471;28;20048;-88
2023/09/16 01:30:43;;;;;;;4.88;3.83;;;;;;;11.58;100.00;98545.59;2630004;28;20044;-88
2023/09/16 01:32:04;;;;;;;6.65;3.70;;;;;;;11.59;100.00;98542.06;2630755;28;20048;-89
2023/09/16 01:33:38;;;;;;;6.75;4.30;;;;;;;11.42;100.00;98546.06;2629985;28;20051;-88
2023/09/16 01:34:55;;;;;;;6.55;4.35;;;;;;;11.51;100.00;98542.31;2629860;28;20467;-87
2023/09/16 01:36:19;;;;;;;5.95;4.05;;;;;;;11.54;100.00;98542.25;2629964;28;20044;-88
2023/09/16 01:37:38;;;;;;;5.80;3.83;;;;;;;11.53;100.00;98537.91;2630779;28;20503;-88
2023/09/16 01:39:00;;;;;;;6.93;4.43;;;;;;;11.56;100.00;98537.81;2630360;28;20091;-89
2023/09/16 01:40:17;;;;;;;;;;;;;;;11.50;100.00;98532.72;2631739;28;20497;-88
2023/09/16 01:41:34;;;;;;;5.00;3.63;;;;;;;11.56;100.00;98532.56;2629807;28;19924;-87
2023/09/16 01:42:51;;;;;;;6.88;4.13;;;;;;;11.57;100.00;98529.03;2619251;28;20048;-88
2023/09/16 01:44:07;;;;;;;7.82;3.95;;;;;;;11.53;100.00;98527.41;2623193;28;20130;-89
2023/09/16 01:45:23;;;;;;;5.25;3.63;;;;;;;11.58;100.00;98529.88;2630334;28;20554;-88
2023/09/16 01:46:39;;;;;;;7.35;3.70;;;;;;;11.50;100.00;98524.03;2629788;28;20295;-88
2023/09/16 01:47:54;;;;;;;5.88;4.15;;;;;;;11.48;100.00;98525.84;2630102;28;20048;-88
2023/09/16 01:49:10;;;;;;;6.45;4.38;;;;;;;11.46;100.00;98527.66;2618490;28;20448;-88
2023/09/16 01:50:25;;;;;;;5.88;4.10;;;;;;;11.46;100.00;98522.41;2623686;28;20052;-88
2023/09/16 01:51:41;;;;;;;5.93;4.07;;;;;;;11.52;100.00;98523.03;2629426;28;20450;-87
2023/09/16 01:52:56;;;;;;;6.43;4.40;;;;;;;11.49;100.00;98523.16;2630656;28;20469;-87
2023/09/16 01:54:12;;;;;;;5.47;3.88;;;;;;;11.44;100.00;98518.03;2629585;28;20052;-88
2023/09/16 01:55:28;;;;;;;5.38;3.70;;;;;;;11.42;100.00;98519.00;2630396;28;20072;-88
2023/09/16 01:56:45;;;;;;;5.85;4.20;;;;;;;11.40;100.00;98513.81;2629836;28;20075;-88
2023/09/16 01:58:00;;;;;;;5.25;3.90;;;;;;;11.37;100.00;98516.53;2629594;28;20048;-88
2023/09/16 01:59:16;;;;;;;5.72;3.83;;;;;;;11.41;100.00;98514.69;2630702;28;20906;-88
2023/09/16 02:00:31;;;;;;;6.70;4.28;;;;;;;11.37;100.00;98519.13;2629139;28;20044;-87
2023/09/16 02:01:47;;;;;;;5.50;3.95;;;;;;;11.38;100.00;98522.59;2630825;28;20051;-88
2023/09/16 02:03:02;;;;;;;5.85;4.38;;;;;;;11.31;100.00;98516.69;2629502;28;20749;-88
2023/09/16 02:04:18;;;;;;;6.68;4.35;;;;;;;11.32;100.00;98522.81;2618949;28;20041;-88
2023/09/16 02:05:34;;;;;;;5.55;4.25;;;;;;;11.27;100.00;98509.81;2622351;28;20079;-88
2023/09/16 02:06:49;;;;;;;6.95;4.30;;;;;;;11.27;100.00;98521.19;2618486;28;20516;-87
2023/09/16 02:08:05;;;;;;;5.90;4.35;;;;;;;11.33;100.00;98527.13;2622205;28;20055;-88
2023/09/16 02:09:20;;;;;;;6.35;4.45;;;;;;;11.28;100.00;98522.03;2629090;28;20044;-87
2023/09/16 02:10:36;;;;;;;6.40;4.50;;;;;;;11.19;100.00;98511.84;2629887;28;20052;-88
2023/09/16 02:11:51;;;;;;;6.70;4.40;;;;;;;11.00;100.00;98522.81;2630238;28;20040;-88
2023/09/16 02:13:07;;;;;;;5.70;4.10;;;;;;;11.02;100.00;98521.88;2629140;28;20059;-88
2023/09/16 02:14:22;;;;;;;6.18;4.35;;;;;;;11.08;100.00;98515.63;2629409;28;20411;-88
2023/09/16 02:15:38;;;;;;;5.82;4.10;;;;;;;11.13;100.00;98516.34;2618569;28;20741;-89
2023/09/16 02:16:54;;;;;;;7.45;4.80;;;;;;;11.12;100.00;98511.16;2622661;28;20052;-88
2023/09/16 02:18:09;;;;;;;7.70;4.80;;;;;;;11.14;100.00;98519.81;2629032;28;20119;-87
2023/09/16 02:19:26;;;;;;;6.95;4.30;;;;;;;11.05;100.00;98518.34;2630254;28;20051;-88
2023/09/16 02:20:43;;;;;;;7.53;4.40;;;;;;;10.89;100.00;98515.28;2629051;28;20075;-88
2023/09/16 02:21:58;;;;;;;6.22;4.45;;;;;;;11.04;100.00;98519.25;2629573;28;20585;-88
2023/09/16 02:23:14;;;;;;;7.93;4.68;;;;;;;11.04;100.00;98519.25;2628873;28;20123;-88
2023/09/16 02:24:31;;;;;;;6.15;4.07;;;;;;;11.11;100.00;98526.00;2629694;28;20044;-87
2023/09/16 02:25:46;;;;;;;6.28;4.53;;;;;;;11.12;100.00;98526.88;2629957;28;20118;-87
2023/09/16 02:27:02;;;;;;;7.65;4.50;;;;;;;11.16;100.00;98520.63;2628556;28;20484;-87
2023/09/16 02:28:18;;;;;;;6.00;4.18;;;;;;;11.26;100.00;98522.09;2630059;28;20048;-88
2023/09/16 02:29:34;;;;;;;5.93;4.00;;;;;;;11.32;100.00;98518.44;2628998;28;20048;-88
2023/09/16 02:30:49;;;;;;;5.97;4.43;;;;;;;11.42;100.00;98516.38;2630084;28;20036;-88
2023/09/16 02:32:05;;;;;;;5.63;4.25;;;;;;;11.42;100.00;98511.13;2629121;28;20048;-88
2023/09/16 02:33:20;;;;;;;5.97;4.15;;;;;;;11.39;100.00;98511.25;2630254;28;20059;-87
2023/09/16 02:34:36;;;;;;;7.38;4.18;;;;;;;11.45;100.00;98511.03;2628897;28;20047;-88
2023/09/16 02:35:52;;;;;;;7.28;4.43;;;;;;;11.48;100.00;98512.72;2630105;28;20047;-87
2023/09/16 02:37:07;;;;;;;7.72;4.60;;;;;;;11.50;100.00;98509.13;2629164;28;20454;-88
2023/09/16 02:38:23;;;;;;;5.72;4.25;;;;;;;11.51;100.00;98508.22;2630125;28;20068;-88
2023/09/16 02:39:39;;;;;;;7.07;3.97;;;;;;;11.48;100.00;98516.19;2629486;28;20105;-88
2023/09/16 02:40:54;;;;;;;7.85;4.40;;;;;;;11.54;100.00;98509.91;2629893;28;20140;-88
2023/09/16 02:42:10;;;;;;;5.05;4.13;;;;;;;11.53;100.00;98508.19;2628859;28;20059;-88
2023/09/16 02:43:25;;;;;;;6.10;4.50;;;;;;;11.64;100.00;98513.09;2628817;28;20060;-88
2023/09/16 02:44:41;;;;;;;5.82;4.72;;;;;;;11.66;100.00;98514.75;2629354;28;20518;-88
2023/09/16 02:45:57;;;;;;;6.70;4.55;;;;;;;11.77;100.00;98505.72;2629768;28;20044;-88
2023/09/16 02:47:12;;;;;;;7.60;4.55;;;;;;;11.80;100.00;98505.59;2628649;28;20109;-88
2023/09/16 02:48:28;;;;;;;5.25;3.90;;;;;;;11.84;100.00;98500.22;2629945;28;20480;-88
2023/09/16 02:49:43;;;;;;;6.82;4.65;;;;;;;11.70;100.00;98505.88;2630595;28;20939;-88
2023/09/16 02:50:59;;;;;;;9.30;5.05;;;;;;;11.82;100.00;98502.03;2619131;28;20044;-88
2023/09/16 02:52:15;;;;;;;6.32;4.53;;;;;;;11.69;100.00;98498.09;2623171;28;20040;-88
2023/09/16 02:53:31;;;;;;;5.88;4.55;;;;;;;11.75;100.00;98499.66;2629922;28;20040;-88
2023/09/16 02:54:47;;;;;;;6.38;4.72;;;;;;;11.79;100.00;98501.28;2629603;28;20051;-88
2023/09/16 02:56:03;;;;;;;5.35;4.65;;;;;;;11.89;100.00;98493.94;2629382;28;20132;-88
2023/09/16 02:57:18;;;;;;;5.85;4.28;;;;;;;11.81;100.00;98494.19;2629614;28;20044;-88
2023/09/16 02:58:34;;;;;;;6.03;4.47;;;;;;;11.76;100.00;98488.25;2629350;28;20044;-88
2023/09/16 02:59:49;;;;;;;6.22;4.53;;;;;;;11.82;100.00;98486.28;2629950;28;20059;-88
2023/09/16 03:01:10;;;;;;;6.88;4.88;;;;;;;11.87;100.00;98491.38;2629276;28;20044;-88
2023/09/16 03:02:25;;;;;;;5.88;4.10;;;;;;;11.75;100.00;98486.53;2629803;28;20044;-88
2023/09/16 03:03:41;;;;;;;7.82;4.53;;;;;;;11.65;100.00;98493.81;2628702;28;20059;-88
2023/09/16 03:04:56;;;;;;;7.13;5.07;;;;;;;11.77;100.00;98492.59;2629481;28;20047;-88
2023/09/16 03:06:12;;;;;;;6.78;4.78;;;;;;;11.77;100.00;98490.81;2627945;28;20063;-87
2023/09/16 03:07:28;;;;;;;6.20;4.63;;;;;;;11.78;100.00;98496.94;2630002;28;20048;-87
2023/09/16 03:08:43;;;;;;;6.07;4.65;;;;;;;11.62;100.00;98502.66;2629005;28;20064;-88
2023/09/16 03:09:59;;;;;;;6.95;4.70;;;;;;;11.61;100.00;98497.44;2618074;28;20063;-87
2023/09/16 03:11:14;;;;;;;7.68;4.30;;;;;;;11.66;100.00;98493.78;2621528;28;20159;-87
2023/09/16 03:12:30;;;;;;;5.95;4.25;;;;;;;11.53;100.00;98493.31;2628819;28;20040;-87
2023/09/16 03:13:45;;;;;;;8.18;4.85;;;;;;;11.65;100.00;98494.69;2618220;28;20066;-87
2023/09/16 03:15:01;;;;;;;6.82;4.45;;;;;;;11.62;100.00;98479.06;2622469;28;20100;-87
2023/09/16 03:16:19;;;;;;;5.78;4.57;;;;;;;11.65;100.00;98497.31;2629568;28;20601;-87
2023/09/16 03:17:34;;;;;;;5.88;4.38;;;;;;;11.60;100.00;98483.50;2629402;28;20048;-88
2023/09/16 03:18:52;;;;;;;6.10;4.43;;;;;;;11.63;100.00;98485.16;2629945;28;20047;-88
2023/09/16 03:20:08;;;;;;;4.70;3.88;;;;;;;11.57;100.00;98483.56;2628725;28;20585;-90
2023/09/16 03:21:25;;;;;;;7.80;4.40;;;;;;;11.40;100.00;98489.38;2629954;28;20409;-88
2023/09/16 03:22:40;;;;;;;6.47;4.25;;;;;;;11.25;100.00;98481.06;2628987;28;20914;-88
2023/09/16 03:23:56;;;;;;;5.78;3.95;;;;;;;11.30;100.00;98489.63;2629182;28;20059;-88
2023/09/16 03:25:11;;;;;;;5.82;4.30;;;;;;;11.33;100.00;98479.97;2628403;28;20127;-88
2023/09/16 03:26:27;;;;;;;5.97;4.65;;;;;;;11.09;100.00;98474.53;2629916;28;20048;-88
2023/09/16 03:27:42;;;;;;;6.97;3.88;;;;;;;11.22;100.00;98477.66;2628781;28;20044;-88
2023/09/16 03:28:58;;;;;;;6.80;4.30;;;;;;;11.18;100.00;98478.69;2629546;28;20040;-88
2023/09/16 03:30:17;;;;;;;6.40;4.30;;;;;;;11.16;100.00;98473.47;2628834;28;20466;-88
2023/09/16 03:31:33;;;;;;;6.75;4.47;;;;;;;11.23;100.00;98477.59;2618501;28;20120;-88
2023/09/16 03:32:48;;;;;;;6.53;4.50;;;;;;;11.05;100.00;98484.28;2622752;28;20044;-87
2023/09/16 03:34:04;;;;;;;5.75;4.25;;;;;;;10.94;100.00;98471.47;2629326;28;20047;-88
2023/09/16 03:35:21;;;;;;;7.20;4.43;;;;;;;11.01;100.00;98480.00;2629136;28;20105;-89
2023/09/16 03:36:37;;;;;;;6.60;4.18;;;;;;;10.90;100.00;98480.31;2629049;28;20040;-88
2023/09/16 03:37:52;;;;;;;6.50;4.70;;;;;;;11.02;100.00;98479.97;2628023;28;20399;-88
2023/09/16 03:39:08;;;;;;;5.07;4.20;;;;;;;11.01;100.00;98473.03;2628692;28;20389;-87
2023/09/16 03:40:23;;;;;;;5.45;4.13;;;;;;;10.92;100.00;98473.28;2628649;28;20415;-87
2023/09/16 03:41:39;;;;;;;6.32;4.40;;;;;;;10.83;100.00;98479.63;2629610;28;20526;-88
2023/09/16 03:42:55;;;;;;;7.13;4.43;;;;;;;10.70;100.00;98471.28;2629269;28;20048;-87
2023/09/16 03:44:12;;;;;;;6.25;4.40;;;;;;;10.87;100.00;98469.94;2628320;28;20044;-87
2023/09/16 03:45:27;;;;;;;6.75;4.75;;;;;;;10.96;100.00;98468.81;2628573;28;20411;-88
2023/09/16 03:46:43;;;;;;;6.88;4.20;;;;;;;11.01;100.00;98459.91;2628672;28;20040;-88
2023/09/16 03:47:58;;;;;;;5.25;4.00;;;;;;;10.85;100.00;98471.75;2629826;28;20078;-88
2023/09/16 03:49:14;;;;;;;8.15;4.68;;;;;;;10.81;100.00;98460.50;2629108;28;20040;-88
2023/09/16 03:50:30;;;;;;;6.10;4.10;;;;;;;10.92;100.00;98468.03;2618489;28;20218;-88
2023/09/16 03:51:46;;;;;;;9.15;5.25;;;;;;;10.98;100.00;98460.00;2621830;28;20495;-87
2023/09/16 03:53:01;;;;;;;9.95;5.28;;;;;;;10.94;100.00;98466.22;2629883;28;20583;-87
2023/09/16 03:54:17;;;;;;;7.68;4.90;;;;;;;10.88;100.00;98466.41;2627606;28;20083;-87
2023/09/16 03:55:33;;;;;;;6.80;5.07;;;;;;;10.86;100.00;98463.00;2629127;28;20050;-88
2023/09/16 03:56:49;;;;;;;8.73;5.00;;;;;;;10.95;100.00;98460.09;2628132;28;20607;-87
2023/09/16 03:58:04;;;;;;;8.00;5.05;;;;;;;10.94;100.00;98465.38;2618059;28;20048;-85
2023/09/16 03:59:20;;;;;;;7.43;4.80;;;;;;;10.95;100.00;98467.09;2617382;28;20173;-87
2023/09/16 04:00:36;;;;;;;8.00;4.88;;;;;;;10.87;100.00;98465.53;2621825;28;20063;-87
2023/09/16 04:01:51;;;;;;;9.20;5.18;;;;;;;10.73;100.00;98470.31;2629003;28;20047;-88
2023/09/16 04:03:07;;;;;;;8.35;4.95;;;;;;;10.73;100.00;98462.47;2628809;28;20503;-87
2023/09/16 04:04:22;;;;;;;7.50;5.00;;;;;;;10.73;100.00;98470.31;2628672;28;20751;-87
2023/09/16 04:05:38;;;;;;;6.97;4.75;;;;;;;10.74;100.00;98469.41;2629181;28;20074;-88
2023/09/16 04:06:53;;;;;;;9.32;4.93;;;;;;;10.57;100.00;98467.28;2617513;28;20532;-87
2023/09/16 04:08:09;;;;;;;6.90;4.65;;;;;;;10.67;100.00;98473.13;2622789;28;20472;-87
2023/09/16 04:09:25;;;;;;;6.70;4.53;;;;;;;10.62;100.00;98470.63;2628699;28;20484;-87
2023/09/16 04:10:41;;;;;;;6.82;4.57;;;;;;;10.72;100.00;98474.72;2628931;28;20132;-88
2023/09/16 04:11:56;;;;;;;7.32;4.50;;;;;;;10.69;100.00;98479.16;2629173;28;20056;-87
2023/09/16 04:13:12;;;;;;;6.72;4.38;;;;;;;10.73;100.00;98480.78;2607365;28;20068;-87
2023/09/16 04:14:28;;;;;;;7.18;4.70;;;;;;;10.67;100.00;98478.34;2615580;28;20079;-87
2023/09/16 04:15:44;;;;;;;6.43;4.88;;;;;;;10.59;100.00;98478.56;2617144;28;20131;-87
2023/09/16 04:16:59;;;;;;;7.38;4.70;;;;;;;10.60;100.00;98470.66;2622812;28;20044;-87
2023/09/16 04:18:14;;;;;;;7.10;4.50;;;;;;;10.56;100.00;98476.88;2628354;28;20491;-87
2023/09/16 04:19:30;;;;;;;6.40;4.80;;;;;;;10.55;100.00;98471.72;2629389;28;20052;-87
2023/09/16 04:20:55;;;;;;;6.50;4.65;;;;;;;10.58;100.00;98471.63;2628915;28;20500;-87
2023/09/16 04:22:10;;;;;;;6.45;4.47;;;;;;;10.40;100.00;98472.94;2628944;28;20101;-87
2023/09/16 04:23:26;;;;;;;6.90;4.70;;;;;;;10.45;100.00;98476.31;2630246;28;20457;-87
2023/09/16 04:24:42;;;;;;;7.75;4.35;;;;;;;10.50;100.00;98470.97;2631017;28;20054;-87
2023/09/16 04:26:00;;;;;;;9.05;4.90;;;;;;;10.52;100.00;98467.41;2631138;28;20044;-87
2023/09/16 04:27:15;;;;;;;6.57;4.68;;;;;;;10.59;100.00;98470.72;2631114;28;20515;-87
2023/09/16 04:28:31;;;;;;;6.57;4.55;;;;;;;10.66;100.00;98468.78;2630813;28;20067;-87
2023/09/16 04:29:46;;;;;;;8.43;4.35;;;;;;;10.67;100.00;98466.09;2631431;28;20556;-87
2023/09/16 04:31:04;;;;;;;8.88;4.47;;;;;;;10.56;100.00;98468.19;2630530;28;20052;-87
2023/09/16 04:32:19;;;;;;;6.88;4.53;;;;;;;10.56;100.00;98463.81;2630895;28;20075;-88
2023/09/16 04:33:35;;;;;;;6.07;4.50;;;;;;;10.55;100.00;98467.31;2629570;28;20583;-87
2023/09/16 04:34:50;;;;;;;7.97;4.20;;;;;;;10.53;100.00;98468.25;2630369;28;20044;-87
2023/09/16 04:36:06;;;;;;;6.60;4.60;;;;;;;10.42;100.00;98474.66;2630820;28;20052;-90
2023/09/16 04:37:22;;;;;;;5.75;3.90;;;;;;;10.32;100.00;98473.16;2631026;28;20055;-87
2023/09/16 04:38:37;;;;;;;6.05;4.28;;;;;;;10.45;100.00;98468.47;2631155;28;20071;-87
2023/09/16 04:39:53;;;;;;;7.50;4.85;;;;;;;10.54;100.00;98476.06;2631014;28;20047;-87
2023/09/16 04:41:08;;;;;;;6.68;4.75;;;;;;;10.48;100.00;98473.63;2631751;28;20665;-87
2023/09/16 04:42:30;;;;;;;7.30;4.43;;;;;;;10.43;100.00;98486.84;2630117;28;20044;-87
2023/09/16 04:43:49;;;;;;;6.80;4.38;;;;;;;10.38;100.00;98491.28;2620430;28;20082;-88
2023/09/16 04:45:05;;;;;;;8.27;4.72;;;;;;;10.35;100.00;98482.69;2624500;28;20062;-88
2023/09/16 04:46:22;;;;;;;6.93;4.72;;;;;;;10.41;100.00;98485.16;2631091;28;20071;-87
2023/09/16 04:47:38;;;;;;;5.75;4.15;;;;;;;10.39;100.00;98492.16;2630423;28;20479;-88
2023/09/16 04:48:54;;;;;;;6.30;4.47;;;;;;;10.36;100.00;98492.25;2619633;28;20227;-87
2023/09/16 04:50:09;;;;;;;6.35;4.35;;;;;;;10.21;100.00;98490.88;2624328;28;20124;-87
2023/09/16 04:51:25;;;;;;;7.10;4.50;;;;;;;10.26;100.00;98494.22;2620013;28;20484;-88
2023/09/16 04:52:41;;;;;;;7.35;4.85;;;;;;;10.41;100.00;98498.25;2624054;28;20048;-87
2023/09/16 04:53:56;;;;;;;7.95;4.80;;;;;;;10.44;100.00;98492.91;2619406;28;20959;-87
2023/09/16 04:55:14;;;;;;;6.13;4.30;;;;;;;10.46;100.00;98493.75;2623021;28;20061;-88
2023/09/16 04:56:30;;;;;;;6.07;4.50;;;;;;;10.37;100.00;98492.19;2630702;28;20513;-87
2023/09/16 04:57:46;;;;;;;7.72;4.60;;;;;;;10.41;100.00;98498.25;2630077;28;20036;-87
2023/09/16 04:59:01;;;;;;;6.07;4.43;;;;;;;10.38;100.00;98498.31;2630132;28;20044;-87
2023/09/16 05:00:17;;;;;;;7.43;4.93;;;;;;;10.45;100.00;98495.50;2630276;28;20491;-88
2023/09/16 05:01:33;;;;;;;5.95;4.45;;;;;;;10.50;100.00;98491.91;2629615;28;20299;-87
2023/09/16 05:02:50;;;;;;;6.78;4.47;;;;;;;10.52;100.00;98503.19;2629669;28;20051;-87
2023/09/16 05:04:05;;;;;;;7.15;4.60;;;;;;;10.44;100.00;98506.88;2618684;28;20048;-87
2023/09/16 05:05:21;;;;;;;7.28;5.03;;;;;;;10.49;100.00;98504.16;2623267;28;20036;-87
2023/09/16 05:06:37;;;;;;;7.88;4.50;;;;;;;10.47;100.00;98507.69;2629959;28;20078;-87
2023/09/16 05:07:54;;;;;;;8.02;4.75;;;;;;;10.52;100.00;98506.69;2627983;28;20048;-86
2023/09/16 05:09:09;;;;;;;6.72;4.30;;;;;;;10.46;100.00;98509.44;2629261;28;20411;-86
2023/09/16 05:10:24;;;;;;;7.57;4.90;;;;;;;10.28;100.00;98505.53;2618457;28;20048;-87
2023/09/16 05:11:40;;;;;;;7.63;5.28;;;;;;;10.26;100.00;98505.56;2622982;28;20092;-87
2023/09/16 05:12:56;;;;;;;8.45;4.88;;;;;;;10.36;100.00;98503.56;2630168;28;20628;-87
2023/09/16 05:14:11;;;;;;;6.82;4.35;;;;;;;10.37;100.00;98504.44;2629584;28;20055;-86
2023/09/16 05:15:27;;;;;;;5.82;4.22;;;;;;;10.52;100.00;98503.19;2629768;28;20036;-87
2023/09/16 05:16:43;;;;;;;6.65;4.90;;;;;;;10.56;100.00;98503.06;2629714;28;20040;-87
2023/09/16 05:17:58;;;;;;;6.57;4.32;;;;;;;10.56;100.00;98495.22;2630211;28;20107;-87
2023/09/16 05:19:14;;;;;;;8.75;4.90;;;;;;;10.58;100.00;98496.03;2618975;28;20150;-87
2023/09/16 05:20:29;;;;;;;6.38;4.82;;;;;;;10.55;100.00;98503.97;2623477;28;20048;-88
2023/09/16 05:21:45;;;;;;;8.20;4.53;;;;;;;10.52;100.00;98500.56;2630197;28;20195;-87
2023/09/16 05:23:01;;;;;;;6.55;4.40;;;;;;;10.57;100.00;98494.31;2629479;28;20096;-87
2023/09/16 05:24:17;;;;;;;7.85;4.93;;;;;;;10.52;100.00;98506.69;2629800;28;20044;-87
2023/09/16 05:25:32;;;;;;;7.95;4.32;;;;;;;10.48;100.00;98506.78;2629512;28;20070;-86
2023/09/16 05:26:48;;;;;;;7.22;4.70;;;;;;;10.45;100.00;98510.34;2629373;28;20113;-88
2023/09/16 05:28:04;;;;;;;6.35;4.45;;;;;;;10.48;100.00;98515.53;2629642;28;20043;-89
2023/09/16 05:29:19;;;;;;;7.20;4.63;;;;;;;10.46;100.00;98512.06;2629674;28;20059;-88
2023/09/16 05:30:35;;;;;;;5.68;4.40;;;;;;;10.39;100.00;98510.47;2629955;28;20499;-88
2023/09/16 05:31:51;;;;;;;5.88;4.50;;;;;;;10.43;100.00;98512.16;2629772;28;20094;-87
2023/09/16 05:33:07;;;;;;;6.13;4.45;;;;;;;10.51;100.00;98509.31;2629702;28;20050;-87
2023/09/16 05:34:22;;;;;;;5.22;4.32;;;;;;;10.56;100.00;98513.53;2629306;28;20411;-87
2023/09/16 05:35:39;;;;;;;5.75;4.75;;;;;;;10.61;100.00;98505.56;2629353;28;20040;-87
2023/09/16 05:36:54;;;;;;;8.27;4.43;;;;;;;10.63;100.00;98516.84;2629825;28;20130;-87
2023/09/16 05:38:10;;;;;;;6.72;4.72;;;;;;;10.70;100.00;98512.31;2629736;28;20047;-87
2023/09/16 05:39:25;;;;;;;8.27;4.95;;;;;;;10.74;100.00;98511.31;2629871;28;20526;-87
2023/09/16 05:40:41;;;;;;;8.15;4.95;;;;;;;10.75;100.00;98513.03;2629891;28;20051;-88
2023/09/16 05:41:57;;;;;;;8.90;4.88;;;;;;;10.79;100.00;98512.06;2629767;28;20090;-88
2023/09/16 05:43:12;;;;;;;6.40;4.57;;;;;;;10.82;100.00;98514.59;2629673;28;20052;-89
2023/09/16 05:44:28;;;;;;;7.85;4.88;;;;;;;10.93;100.00;98513.44;2629560;28;20484;-88
2023/09/16 05:45:49;;;;;;;7.32;5.20;;;;;;;10.95;100.00;98512.47;2629654;28;20044;-88
2023/09/16 05:47:05;;;;;;;7.35;4.43;;;;;;;10.97;100.00;98512.44;2618701;28;20098;-88
2023/09/16 05:48:21;;;;;;;7.32;4.78;;;;;;;11.05;100.00;98510.47;2622550;28;20040;-88
2023/09/16 05:49:36;;;;;;;7.85;5.07;;;;;;;11.06;100.00;98513.94;2629517;28;20089;-88
2023/09/16 05:50:59;;;;;;;9.10;5.18;;;;;;;11.24;100.00;98512.53;2629117;28;20060;-91
2023/09/16 05:52:15;;;;;;;6.43;4.85;;;;;;;11.25;100.00;98514.25;2628894;28;20959;-87
2023/09/16 05:53:31;;;;;;;7.53;5.18;;;;;;;11.23;100.00;98516.91;2628344;28;20037;-87
2023/09/16 05:54:47;;;;;;;7.75;5.10;;;;;;;11.36;100.00;98509.56;2619072;28;20040;-87